Vera Cruz, Brazil
Current Conditions -  °F | °C
As of 12:25 AM on Thursday 27 Nov 2014 (Local Time) from SBSM Reporting Station
Broken Clouds Broken Clouds  
Wind Chill: 72°   Ceiling: 2500
Heat Index: 72°   Visibility: 6mi
Dew Point: 64°   Wind: 17mph
Humidity: 78%   Direction: 120°ESE
Pressure: 29.88"   Gusts: NA
Location:  29.71°S, 52.51°W
Report Text: SBSM 270225Z 12015KT 9999 BKN025 22/18 Q1012
Loading
Personal Weather Stations






























Interactive Weather Map New forecast layout! Learn more

10-Day Weather Forecast

Advertisements
Track Severe Weather on mobile